Time;durP1;ratioP1;P1;durP2;ratioP2;P2;SDS_P1;SDS_P2;PMS_P1;PMS_P2;Temp;Humidity;BMP_temperature;BMP_pressure;BME280_temperature;BME280_humidity;BME280_pressure;Samples;Min_cycle;Max_cycle;Signal;HPM_P1;HPM_P2
2023/08/19 00:00:47;;;;;;;20.27;12.60;;;;;;;32.33;51.25;101250.16;5087728;28;20116;-69
2023/08/19 00:03:13;;;;;;;22.60;13.43;;;;;;;32.60;50.67;101240.34;5076228;28;20032;-69
2023/08/19 00:05:38;;;;;;;26.58;13.77;;;;;;;32.11;51.86;101245.94;5087478;28;20105;-69
2023/08/19 00:08:04;;;;;;;23.08;13.23;;;;;;;32.41;51.16;101239.44;5076122;28;20043;-69
2023/08/19 00:10:29;;;;;;;21.63;13.48;;;;;;;32.02;52.37;101242.22;5069930;28;20050;-68
2023/08/19 00:12:55;;;;;;;25.92;14.27;;;;;;;32.35;51.48;101241.88;5083465;28;20138;-69
2023/08/19 00:15:21;;;;;;;26.15;15.15;;;;;;;32.47;50.77;101238.00;5078212;28;20107;-69
2023/08/19 00:17:47;;;;;;;24.05;13.38;;;;;;;32.30;51.64;101245.00;5080727;28;20032;-69
2023/08/19 00:20:12;;;;;;;22.08;13.43;;;;;;;32.46;51.19;101239.00;5084407;28;20090;-69
2023/08/19 00:22:38;;;;;;;24.48;14.82;;;;;;;31.81;52.48;101245.13;5074848;28;20040;-69
2023/08/19 00:25:07;;;;;;;24.83;15.20;;;;;;;32.25;52.01;101237.38;5078832;28;20032;-69
2023/08/19 00:27:33;;;;;;;27.77;14.85;;;;;;;31.85;52.91;101230.34;5081715;28;20028;-69
2023/08/19 00:29:58;;;;;;;23.23;14.85;;;;;;;32.16;52.49;101226.59;5069058;28;20031;-69
2023/08/19 00:32:24;;;;;;;24.58;14.02;;;;;;;31.99;52.84;101230.88;5074415;28;20161;-69
2023/08/19 00:34:49;;;;;;;24.15;14.52;;;;;;;32.14;52.61;101218.59;5087153;28;20402;-69
2023/08/19 00:37:15;;;;;;;26.80;14.90;;;;;;;31.95;52.69;101220.34;5087210;28;20559;-70
2023/08/19 00:39:40;;;;;;;25.20;14.52;;;;;;;31.93;52.94;101221.47;5088329;28;20039;-69
2023/08/19 00:42:09;;;;;;;24.30;14.80;;;;;;;31.61;54.27;101226.25;5086877;28;20133;-69
2023/08/19 00:44:35;;;;;;;24.75;15.30;;;;;;;31.99;53.31;101215.50;5078244;28;20119;-69
2023/08/19 00:47:02;;;;;;;24.70;13.85;;;;;;;32.10;52.92;101217.19;5082507;28;20399;-69
2023/08/19 00:49:29;;;;;;;21.15;13.40;;;;;;;32.07;52.60;101212.09;5085059;28;20848;-69
2023/08/19 00:51:55;;;;;;;22.80;13.95;;;;;;;31.79;53.70;101212.00;5087173;28;20589;-70
2023/08/19 00:54:21;;;;;;;22.38;13.60;;;;;;;32.34;52.02;101205.03;5069301;28;20036;-69
2023/08/19 00:56:46;;;;;;;22.15;13.93;;;;;;;31.62;54.20;101211.72;5077350;28;20389;-70
2023/08/19 00:59:12;;;;;;;22.10;14.57;;;;;;;31.97;53.13;101202.13;5081247;28;20058;-69
2023/08/19 01:01:37;;;;;;;24.40;14.80;;;;;;;31.29;55.55;101200.34;5079915;28;20066;-69
2023/08/19 01:04:03;;;;;;;21.77;13.70;;;;;;;32.23;53.06;101193.41;5080301;28;20024;-70
2023/08/19 01:06:48;;;;;;;26.40;15.48;;;;;;;32.18;53.15;101187.59;5088309;28;20122;-70
2023/08/19 01:09:28;;;;;;;25.00;14.88;;;;;;;31.82;53.95;101200.91;5080526;28;20036;-69
2023/08/19 01:12:12;;;;;;;22.00;14.00;;;;;;;32.32;52.57;101177.28;5079078;28;20492;-69
2023/08/19 01:14:40;;;;;;;23.52;14.63;;;;;;;32.43;52.14;101187.91;5084897;28;20035;-70
2023/08/19 01:17:10;;;;;;;28.33;13.98;;;;;;;32.26;52.30;101185.00;5090288;28;20495;-70
2023/08/19 01:19:38;;;;;;;23.00;14.48;;;;;;;32.10;53.25;101187.44;5087724;28;20025;-69
2023/08/19 01:22:07;;;;;;;22.38;14.13;;;;;;;31.72;54.91;101186.56;5083396;28;20070;-69
2023/08/19 01:24:40;;;;;;;22.93;13.83;;;;;;;32.09;53.79;101188.44;5080015;28;20033;-69
2023/08/19 01:27:20;;;;;;;21.23;13.30;;;;;;;32.33;52.70;101189.78;5089036;28;20591;-70
2023/08/19 01:29:46;;;;;;;21.65;14.02;;;;;;;32.03;53.57;101181.78;5076532;28;20077;-69
2023/08/19 01:32:11;;;;;;;25.75;14.88;;;;;;;32.32;52.58;101180.00;5087601;28;20027;-70
2023/08/19 01:34:37;;;;;;;24.13;14.27;;;;;;;32.42;52.38;101178.09;5089269;28;20111;-69
2023/08/19 01:37:07;;;;;;;27.80;14.20;;;;;;;32.34;52.81;101176.13;5073814;28;20029;-70
2023/08/19 01:39:36;;;;;;;22.75;14.25;;;;;;;32.13;53.18;101179.03;5090709;28;20077;-68
2023/08/19 01:42:03;;;;;;;20.30;12.60;;;;;;;32.56;52.15;101174.88;5086273;28;20123;-69
2023/08/19 01:44:28;;;;;;;22.98;13.98;;;;;;;32.98;50.71;101178.91;5086644;28;20073;-69
2023/08/19 01:46:54;;;;;;;22.33;13.65;;;;;;;32.90;51.13;101171.53;5076920;28;20032;-69
2023/08/19 01:49:19;;;;;;;22.17;13.88;;;;;;;32.79;50.85;101169.91;5085382;28;20110;-69
2023/08/19 01:51:44;;;;;;;21.15;13.65;;;;;;;32.79;51.00;101174.47;5089437;28;20038;-69
2023/08/19 01:54:10;;;;;;;23.92;14.55;;;;;;;32.87;50.88;101171.00;5070543;28;20024;-69
2023/08/19 01:56:36;;;;;;;22.75;13.93;;;;;;;33.01;50.54;101180.44;5077667;28;20119;-69
2023/08/19 01:59:02;;;;;;;24.40;13.52;;;;;;;32.88;50.76;101175.41;5082113;28;20400;-69
2023/08/19 02:01:27;;;;;;;23.73;13.65;;;;;;;32.47;51.54;101176.63;5074572;28;20043;-69
2023/08/19 02:03:53;;;;;;;25.23;13.85;;;;;;;32.20;52.16;101172.06;5080499;28;20113;-69
2023/08/19 02:06:18;;;;;;;25.98;13.50;;;;;;;32.22;52.36;101167.38;5083904;28;20036;-69
2023/08/19 02:08:44;;;;;;;24.83;14.25;;;;;;;32.71;50.89;101166.28;5086593;28;20043;-69
2023/08/19 02:11:09;;;;;;;20.70;13.20;;;;;;;32.50;51.78;101159.25;5079508;28;20032;-69
2023/08/19 02:13:35;;;;;;;24.08;14.10;;;;;;;32.66;51.10;101169.41;5088030;28;20024;-69
2023/08/19 02:16:01;;;;;;;23.13;14.90;;;;;;;32.37;51.96;101159.63;5086242;28;20035;-69
2023/08/19 02:18:28;;;;;;;21.65;13.77;;;;;;;32.51;51.52;101158.25;5076629;28;20024;-69
2023/08/19 02:20:53;;;;;;;22.85;13.48;;;;;;;32.51;51.82;101150.13;5089814;28;20028;-69
2023/08/19 02:23:19;;;;;;;21.95;14.40;;;;;;;32.25;52.68;101150.00;5086589;28;20039;-69
2023/08/19 02:25:44;;;;;;;21.27;12.68;;;;;;;32.17;53.03;101150.75;5086437;28;20038;-69
2023/08/19 02:28:10;;;;;;;25.23;14.07;;;;;;;32.83;51.14;101140.69;5090500;28;20081;-69
2023/08/19 02:30:35;;;;;;;21.52;13.50;;;;;;;32.51;52.07;101139.31;5088451;28;20040;-69
2023/08/19 02:33:07;;;;;;;21.25;13.00;;;;;;;31.79;53.70;101144.44;5086478;28;20396;-70
2023/08/19 02:35:33;;;;;;;21.30;13.55;;;;;;;32.64;51.89;101139.81;5088111;28;20464;-69
2023/08/19 02:37:58;;;;;;;20.30;13.07;;;;;;;31.95;53.75;101133.84;5087928;28;20058;-70
2023/08/19 02:40:24;;;;;;;21.73;13.40;;;;;;;32.13;53.19;101130.38;5072827;28;20036;-69
2023/08/19 02:42:50;;;;;;;20.83;12.90;;;;;;;32.37;52.41;101134.41;5072838;28;20032;-70
2023/08/19 02:45:15;;;;;;;23.17;12.82;;;;;;;32.39;52.26;101129.72;5077775;28;20499;-69
2023/08/19 02:47:41;;;;;;;22.98;13.13;;;;;;;32.44;52.07;101132.81;5089066;28;20028;-69
2023/08/19 02:50:07;;;;;;;24.17;13.70;;;;;;;32.70;51.53;101138.38;5082956;28;20035;-69
2023/08/19 02:52:32;;;;;;;22.85;13.52;;;;;;;32.60;51.77;101133.00;5074169;28;20028;-70
2023/08/19 02:54:57;;;;;;;21.30;13.48;;;;;;;32.43;51.88;101131.09;5081248;28;20022;-69
2023/08/19 02:57:23;;;;;;;20.65;12.80;;;;;;;32.89;51.08;101131.97;5070164;28;20028;-70
2023/08/19 02:59:48;;;;;;;23.00;14.20;;;;;;;32.44;51.92;101135.53;5051999;28;20111;-69
2023/08/19 03:02:14;;;;;;;21.80;12.55;;;;;;;32.77;51.29;101149.44;5064115;28;20047;-70
2023/08/19 03:04:39;;;;;;;25.92;14.02;;;;;;;32.79;51.16;101131.19;5033632;28;20024;-70
2023/08/19 03:07:05;;;;;;;23.83;13.60;;;;;;;32.79;51.13;101126.59;5035534;28;20090;-68
2023/08/19 03:09:30;;;;;;;19.80;12.93;;;;;;;33.08;50.39;101132.78;5050559;28;20499;-70
2023/08/19 03:11:56;;;;;;;19.83;13.35;;;;;;;32.56;51.55;101131.59;5033928;28;20029;-69
2023/08/19 03:14:21;;;;;;;19.67;12.80;;;;;;;32.77;50.84;101123.22;5044306;28;20362;-70
2023/08/19 03:16:47;;;;;;;20.58;13.77;;;;;;;32.80;51.34;101122.06;5037803;28;20032;-70
2023/08/19 03:19:14;;;;;;;22.10;14.52;;;;;;;32.13;53.32;101119.56;5037666;28;20036;-70
2023/08/19 03:21:40;;;;;;;22.20;13.88;;;;;;;32.73;51.80;101102.03;5050579;28;20032;-70
2023/08/19 03:24:05;;;;;;;26.05;14.13;;;;;;;32.80;51.23;101117.50;5051523;28;20158;-70
2023/08/19 03:26:31;;;;;;;20.60;12.50;;;;;;;32.94;50.91;101104.41;5046439;28;20025;-69
2023/08/19 03:28:56;;;;;;;23.45;12.93;;;;;;;32.60;51.97;101105.94;5050691;28;20032;-69
2023/08/19 03:31:22;;;;;;;23.10;13.55;;;;;;;31.83;54.38;101108.03;5044096;28;20021;-69
2023/08/19 03:33:47;;;;;;;19.33;13.35;;;;;;;32.23;53.41;101122.25;5045455;28;20028;-70
2023/08/19 03:36:12;;;;;;;23.98;13.90;;;;;;;31.96;53.57;101135.56;5040003;28;20082;-69
2023/08/19 03:38:38;;;;;;;21.50;13.05;;;;;;;31.99;54.43;101128.19;5047428;28;20025;-69
2023/08/19 03:41:03;;;;;;;22.02;13.35;;;;;;;32.14;53.71;101119.44;5058350;28;20039;-69
2023/08/19 03:43:29;;;;;;;23.48;14.65;;;;;;;31.48;55.65;101120.34;5038201;28;20032;-68
2023/08/19 03:45:54;;;;;;;23.35;13.20;;;;;;;31.49;55.96;101119.34;5038872;28;20213;-69
2023/08/19 03:48:19;;;;;;;25.65;14.55;;;;;;;32.06;54.16;101123.88;5049274;28;20036;-69
2023/08/19 03:50:45;;;;;;;22.15;14.15;;;;;;;31.96;54.41;101124.75;5050924;28;20060;-69
2023/08/19 03:53:10;;;;;;;24.17;13.20;;;;;;;31.85;54.85;101119.53;5066777;28;20046;-69
2023/08/19 03:55:36;;;;;;;24.27;13.43;;;;;;;32.17;54.01;101131.81;5046646;28;20024;-68
2023/08/19 03:58:02;;;;;;;24.58;13.93;;;;;;;32.20;53.20;101131.50;5069148;28;20059;-69
2023/08/19 04:00:27;;;;;;;25.50;14.05;;;;;;;31.77;55.28;101135.66;5056602;28;20617;-69
2023/08/19 04:02:52;;;;;;;19.42;12.90;;;;;;;32.29;53.20;101138.72;5042115;28;20092;-69
2023/08/19 04:05:18;;;;;;;24.40;14.38;;;;;;;32.45;52.61;101145.31;5049478;28;20024;-69
2023/08/19 04:07:43;;;;;;;21.38;12.60;;;;;;;32.28;52.55;101141.59;5068064;28;20029;-70
2023/08/19 04:10:09;;;;;;;20.13;12.50;;;;;;;32.64;51.84;101138.94;5047620;28;20107;-70
2023/08/19 04:12:35;;;;;;;20.92;12.25;;;;;;;32.08;52.97;101135.38;5036967;28;20021;-70
2023/08/19 04:15:01;;;;;;;19.10;12.82;;;;;;;31.78;53.77;101140.06;5039669;28;20040;-70
2023/08/19 04:17:26;;;;;;;19.27;12.27;;;;;;;32.12;53.14;101144.88;5042220;28;20028;-69
2023/08/19 04:19:51;;;;;;;17.80;12.25;;;;;;;32.23;52.81;101144.75;5041475;28;20131;-69
2023/08/19 04:22:18;;;;;;;18.45;11.80;;;;;;;32.14;52.62;101145.59;5036787;28;20033;-69
2023/08/19 04:24:50;;;;;;;20.85;13.32;;;;;;;31.35;55.13;101141.38;5036190;28;20020;-69
2023/08/19 04:27:16;;;;;;;;;;;;;;;31.68;54.69;101136.50;5068751;28;20052;-69
2023/08/19 04:29:41;;;;;;;19.27;12.23;;;;;;;31.77;54.24;101130.25;5067040;28;20418;-69
2023/08/19 04:32:07;;;;;;;17.90;11.25;;;;;;;31.38;55.48;101125.75;5040862;28;20032;-69
2023/08/19 04:34:32;;;;;;;19.30;11.57;;;;;;;31.74;54.36;101119.75;5065140;28;20032;-69
2023/08/19 04:36:58;;;;;;;15.75;10.77;;;;;;;31.63;55.07;101118.06;5045800;28;20021;-70
2023/08/19 04:39:23;;;;;;;18.75;11.82;;;;;;;31.97;53.84;101112.97;5038891;28;20452;-69
2023/08/19 04:41:49;;;;;;;15.25;10.48;;;;;;;31.71;53.71;101125.41;5045310;28;20032;-70
2023/08/19 04:44:15;;;;;;;20.88;11.63;;;;;;;31.66;54.56;101117.75;5049250;28;20036;-70
2023/08/19 04:46:41;;;;;;;15.40;10.00;;;;;;;31.95;53.46;101125.75;5034755;28;20051;-70
2023/08/19 04:49:07;;;;;;;16.17;10.30;;;;;;;32.37;51.96;101126.28;5039995;28;20055;-70
2023/08/19 04:51:33;;;;;;;16.15;9.90;;;;;;;32.12;52.66;101134.94;5051070;28;20516;-70
2023/08/19 04:53:59;;;;;;;14.38;10.68;;;;;;;32.32;51.85;101125.91;5065994;28;20028;-70
2023/08/19 04:56:24;;;;;;;13.98;9.63;;;;;;;32.46;51.82;101125.38;5041294;28;20035;-70
2023/08/19 04:58:50;;;;;;;16.20;10.45;;;;;;;32.08;52.85;101127.25;5059115;28;20083;-69
2023/08/19 05:01:15;;;;;;;15.35;9.63;;;;;;;32.38;51.99;101128.84;5081529;28;20031;-69
2023/08/19 05:03:41;;;;;;;13.98;9.48;;;;;;;32.34;52.07;101137.41;5082997;28;20031;-69
2023/08/19 05:06:07;;;;;;;14.57;9.10;;;;;;;32.06;53.13;101138.22;5075661;28;20033;-70
2023/08/19 05:08:32;;;;;;;14.23;9.68;;;;;;;32.02;53.53;101138.69;5068047;28;20032;-69
2023/08/19 05:10:58;;;;;;;14.48;9.18;;;;;;;32.41;52.39;101133.09;5073709;28;20031;-69
2023/08/19 05:13:23;;;;;;;16.50;9.90;;;;;;;31.76;54.49;101144.75;5081028;28;20480;-70
2023/08/19 05:15:49;;;;;;;15.25;9.82;;;;;;;32.06;53.75;101140.94;5083817;28;20037;-70
2023/08/19 05:18:15;;;;;;;14.15;9.05;;;;;;;32.03;53.75;101135.00;5072088;28;20408;-70
2023/08/19 05:20:40;;;;;;;15.93;10.20;;;;;;;31.57;55.18;101141.06;5081962;28;20028;-71
2023/08/19 05:23:06;;;;;;;15.73;10.02;;;;;;;31.47;56.40;101151.03;5086185;28;20020;-70
2023/08/19 05:25:31;;;;;;;15.15;9.98;;;;;;;31.89;54.86;101160.63;5077392;28;20024;-70
2023/08/19 05:27:57;;;;;;;19.08;9.95;;;;;;;32.03;54.54;101151.22;5079956;28;20028;-70
2023/08/19 05:30:23;;;;;;;15.05;9.65;;;;;;;31.79;55.22;101163.34;5087486;28;20024;-70
2023/08/19 05:32:48;;;;;;;16.42;10.68;;;;;;;31.94;54.87;101153.81;5069679;28;20241;-70
2023/08/19 05:35:14;;;;;;;18.02;11.02;;;;;;;31.61;56.43;101153.31;5082536;28;20059;-71
2023/08/19 05:37:39;;;;;;;16.80;11.45;;;;;;;32.19;53.93;101140.63;5076028;28;20050;-70
2023/08/19 05:40:05;;;;;;;19.65;11.75;;;;;;;31.42;55.91;101153.31;5087062;28;20028;-71
2023/08/19 05:42:31;;;;;;;13.68;9.85;;;;;;;31.10;57.37;101170.66;5087770;28;20109;-71
2023/08/19 05:44:56;;;;;;;16.67;10.80;;;;;;;31.86;55.37;101169.91;5089228;28;20051;-70
2023/08/19 05:47:22;;;;;;;14.82;10.90;;;;;;;31.82;55.34;101165.78;5083845;28;20035;-72
2023/08/19 05:49:47;;;;;;;16.80;10.32;;;;;;;31.87;55.43;101174.28;5087177;28;20020;-71
2023/08/19 05:52:13;;;;;;;16.85;11.18;;;;;;;32.02;54.86;101160.31;5079306;28;20038;-71
2023/08/19 05:54:38;;;;;;;15.60;11.23;;;;;;;32.17;54.21;101158.84;5085926;28;20039;-71
2023/08/19 05:57:04;;;;;;;15.68;10.15;;;;;;;32.00;54.94;101173.09;5091363;28;20391;-71
2023/08/19 05:59:29;;;;;;;16.33;11.23;;;;;;;31.78;55.74;101186.00;5088831;28;20415;-71
2023/08/19 06:01:55;;;;;;;16.70;10.32;;;;;;;32.02;55.54;101190.03;5105454;27;20028;-71
2023/08/19 06:04:20;;;;;;;19.45;11.65;;;;;;;32.24;55.13;101178.03;5086868;28;20042;-70
2023/08/19 06:06:46;;;;;;;16.70;10.75;;;;;;;31.95;55.74;101190.63;5081609;28;20074;-71
2023/08/19 06:09:11;;;;;;;17.52;12.45;;;;;;;32.11;54.95;101181.06;5089475;28;20480;-71
2023/08/19 06:11:51;;;;;;;20.48;11.50;;;;;;;32.71;53.96;101193.31;5081653;28;20119;-71
2023/08/19 06:14:18;;;;;;;16.60;10.57;;;;;;;32.92;53.47;101195.75;5088219;28;20073;-71
2023/08/19 06:16:44;;;;;;;16.73;10.75;;;;;;;32.55;54.04;101181.28;5078538;28;20115;-70
2023/08/19 06:19:10;;;;;;;16.48;10.23;;;;;;;33.19;53.10;101181.28;5078312;28;20031;-70
2023/08/19 06:21:36;;;;;;;15.85;10.52;;;;;;;33.31;52.37;101174.66;5078507;28;20361;-70
2023/08/19 06:24:02;;;;;;;13.73;9.45;;;;;;;33.28;52.26;101182.25;5070835;28;20539;-70
2023/08/19 06:26:27;;;;;;;15.77;9.82;;;;;;;33.21;52.23;101195.53;5070443;28;20031;-71
2023/08/19 06:28:52;;;;;;;15.52;10.00;;;;;;;32.90;53.43;101214.84;5069268;28;20361;-71
2023/08/19 06:31:18;;;;;;;14.13;10.02;;;;;;;33.03;52.83;101205.50;5083321;28;20369;-70
2023/08/19 06:33:44;;;;;;;14.25;9.50;;;;;;;33.06;52.69;101207.91;5071084;28;20024;-70
2023/08/19 06:36:17;;;;;;;14.52;9.32;;;;;;;33.35;51.81;101212.28;5070275;28;20044;-70
2023/08/19 06:38:49;;;;;;;17.20;10.13;;;;;;;33.55;51.38;101200.25;5075557;28;20476;-70
2023/08/19 06:41:16;;;;;;;13.90;9.60;;;;;;;32.85;52.69;101205.47;5076782;28;20712;-70
2023/08/19 06:43:43;;;;;;;15.90;9.80;;;;;;;33.13;52.34;101211.69;5069783;28;20052;-70
2023/08/19 06:46:08;;;;;;;14.60;9.50;;;;;;;32.39;53.91;101210.84;5073847;28;20016;-70
2023/08/19 06:48:39;;;;;;;15.93;8.82;;;;;;;32.74;53.62;101206.53;5082637;28;20498;-70
2023/08/19 06:51:05;;;;;;;14.90;9.02;;;;;;;33.09;52.68;101213.00;5069932;28;20051;-71
2023/08/19 06:53:30;;;;;;;13.15;9.50;;;;;;;32.90;53.64;101214.84;5070118;28;20111;-71
2023/08/19 06:56:23;;;;;;;12.48;9.05;;;;;;;33.30;52.43;101216.31;5080200;28;20107;-71
2023/08/19 06:58:54;;;;;;;15.65;9.70;;;;;;;33.18;52.77;101222.94;5070582;28;20059;-71
2023/08/19 07:01:25;;;;;;;16.33;9.32;;;;;;;32.76;54.38;101234.31;5069708;28;20803;-71
2023/08/19 07:03:52;;;;;;;13.38;9.90;;;;;;;32.75;54.59;101241.56;5068636;28;20067;-69
2023/08/19 07:06:20;;;;;;;15.25;9.98;;;;;;;33.34;53.33;101237.66;5091077;28;20051;-71
2023/08/19 07:08:46;;;;;;;12.75;8.70;;;;;;;33.14;54.47;101243.19;5085070;28;20077;-71
2023/08/19 07:11:12;;;;;;;12.80;9.02;;;;;;;33.41;53.53;101238.72;5069303;28;20396;-71
2023/08/19 07:13:38;;;;;;;16.83;9.15;;;;;;;32.85;54.64;101254.19;5071680;28;20031;-72
2023/08/19 07:16:05;;;;;;;15.52;9.18;;;;;;;32.74;55.14;101239.00;5089711;28;20020;-71
2023/08/19 07:18:39;;;;;;;18.17;8.82;;;;;;;33.17;53.96;101250.13;5076661;28;20031;-71
2023/08/19 07:21:08;;;;;;;13.45;8.93;;;;;;;32.57;55.41;101255.00;5077587;28;20084;-71
2023/08/19 07:23:37;;;;;;;12.10;8.20;;;;;;;33.06;53.86;101272.88;5090421;28;20038;-71
2023/08/19 07:26:03;;;;;;;13.00;8.77;;;;;;;32.99;54.69;101269.94;5089395;28;20024;-71
2023/08/19 07:28:30;;;;;;;15.15;9.38;;;;;;;33.48;53.09;101266.88;5088928;28;20020;-70
2023/08/19 07:30:56;;;;;;;13.52;8.18;;;;;;;34.14;51.34;101262.00;5081799;28;20052;-70
2023/08/19 07:33:21;;;;;;;13.50;8.23;;;;;;;33.56;52.25;101253.41;5069243;28;20115;-70
2023/08/19 07:35:46;;;;;;;12.55;7.97;;;;;;;34.11;50.41;101259.59;5068794;28;20020;-71
2023/08/19 07:38:12;;;;;;;17.17;8.10;;;;;;;34.28;50.28;101269.53;5068749;28;20115;-70
2023/08/19 07:40:38;;;;;;;11.20;7.85;;;;;;;34.14;50.28;101256.56;5074190;28;20024;-69
2023/08/19 07:43:03;;;;;;;13.50;7.43;;;;;;;34.06;50.46;101256.50;5090742;28;20028;-70
2023/08/19 07:45:28;;;;;;;9.43;7.28;;;;;;;34.08;50.26;101257.22;5088602;28;20542;-70
2023/08/19 07:47:54;;;;;;;8.93;6.68;;;;;;;33.91;50.22;101267.97;5090351;28;20032;-70
2023/08/19 07:50:20;;;;;;;11.63;7.30;;;;;;;33.61;50.26;101271.94;5079257;28;20067;-70
2023/08/19 07:52:45;;;;;;;9.43;6.35;;;;;;;33.14;53.07;101308.19;5087806;28;20035;-69
2023/08/19 07:55:10;;;;;;;10.38;6.88;;;;;;;33.72;50.62;101306.06;5089522;28;20032;-70
2023/08/19 07:57:36;;;;;;;9.38;6.25;;;;;;;33.05;53.11;101303.66;5086667;28;20035;-70
2023/08/19 08:00:02;;;;;;;15.80;7.05;;;;;;;32.90;52.77;101290.63;5051251;28;20024;-70
2023/08/19 08:02:28;;;;;;;10.85;6.18;;;;;;;32.93;52.70;101301.16;5068773;28;20032;-69
2023/08/19 08:04:53;;;;;;;10.00;6.82;;;;;;;33.75;51.49;101303.03;5063565;28;20032;-69
2023/08/19 08:07:18;;;;;;;8.63;6.80;;;;;;;34.05;50.45;101317.19;5049384;28;20047;-70
2023/08/19 08:09:45;;;;;;;12.10;6.82;;;;;;;33.27;52.44;101318.66;5031811;28;20056;-70
2023/08/19 08:12:11;;;;;;;10.45;7.13;;;;;;;33.73;51.60;101318.59;5045774;28;20029;-69
2023/08/19 08:14:36;;;;;;;11.88;7.00;;;;;;;32.90;53.33;101311.44;5068804;28;20016;-70
2023/08/19 08:17:02;;;;;;;14.15;7.07;;;;;;;32.52;54.06;101324.97;5069794;28;20056;-70
2023/08/19 08:19:28;;;;;;;12.43;6.80;;;;;;;33.04;53.04;101320.91;5050872;28;20029;-70
2023/08/19 08:21:54;;;;;;;10.07;7.35;;;;;;;33.24;51.96;101319.81;5049898;28;20035;-69
2023/08/19 08:24:20;;;;;;;13.25;6.93;;;;;;;33.51;50.29;101322.63;5051667;28;20016;-69
2023/08/19 08:26:46;;;;;;;11.68;6.72;;;;;;;35.83;47.20;101318.28;5050877;28;20048;-69
2023/08/19 08:29:12;;;;;;;11.38;6.72;;;;;;;36.68;43.64;101317.81;5049853;28;20477;-69
2023/08/19 08:31:37;;;;;;;10.45;5.55;;;;;;;36.68;42.51;101338.72;5036144;28;20040;-70
2023/08/19 08:34:03;;;;;;;8.13;5.47;;;;;;;36.17;43.44;101342.53;5034521;28;20207;-69
2023/08/19 08:36:28;;;;;;;9.02;5.32;;;;;;;37.37;41.34;101337.25;5068533;28;20035;-70
2023/08/19 08:38:54;;;;;;;8.68;5.55;;;;;;;36.45;42.31;101349.50;5038090;28;20566;-71
2023/08/19 08:41:20;;;;;;;8.82;6.30;;;;;;;36.15;42.84;101368.25;5050400;28;20029;-69
2023/08/19 08:43:47;;;;;;;8.32;5.70;;;;;;;36.28;42.34;101382.16;5049045;28;20062;-69
2023/08/19 08:46:15;;;;;;;11.10;6.28;;;;;;;36.47;42.15;101377.41;5051163;28;20552;-69
2023/08/19 08:48:43;;;;;;;9.30;5.15;;;;;;;38.06;39.06;101378.16;5067839;28;20031;-68
2023/08/19 08:51:09;;;;;;;10.18;6.00;;;;;;;36.65;41.17;101394.34;5054368;28;20028;-69
2023/08/19 08:53:35;;;;;;;10.10;5.75;;;;;;;36.30;41.39;101385.56;5048268;28;20464;-68
2023/08/19 08:56:02;;;;;;;10.52;5.10;;;;;;;37.61;39.58;101390.75;5049656;28;20028;-69
2023/08/19 08:58:27;;;;;;;11.10;5.78;;;;;;;35.10;43.86;101402.13;5065669;28;20044;-70
2023/08/19 09:00:54;;;;;;;8.10;4.88;;;;;;;34.55;44.44;101399.78;5088636;28;20388;-69
2023/08/19 09:03:28;;;;;;;7.82;4.32;;;;;;;34.15;44.69;101399.28;5087116;28;20365;-69
2023/08/19 09:05:58;;;;;;;5.22;3.58;;;;;;;34.43;44.58;101412.75;5081470;28;20089;-69
2023/08/19 09:08:42;;;;;;;6.78;4.15;;;;;;;33.86;46.35;101416.66;5067580;28;20064;-70
2023/08/19 09:11:13;;;;;;;5.95;2.80;;;;;;;33.27;47.03;101427.81;5066839;28;20029;-69
2023/08/19 09:13:41;;;;;;;3.38;2.63;;;;;;;33.43;46.48;101437.19;5068679;28;20480;-69
2023/08/19 09:16:10;;;;;;;2.60;1.98;;;;;;;33.02;46.80;101445.59;5074128;28;20103;-69
2023/08/19 09:18:36;;;;;;;4.53;2.17;;;;;;;33.67;45.53;101435.75;5091637;28;20028;-69
2023/08/19 09:21:02;;;;;;;3.45;2.38;;;;;;;32.85;46.04;101449.06;5077718;28;20098;-69
2023/08/19 09:23:30;;;;;;;3.10;2.03;;;;;;;34.01;43.68;101457.63;5072327;28;20028;-69
2023/08/19 09:25:57;;;;;;;3.63;2.50;;;;;;;33.13;45.24;101458.09;5070342;28;20643;-70
2023/08/19 09:28:22;;;;;;;3.65;2.60;;;;;;;34.26;43.50;101461.41;5071523;28;20033;-69
2023/08/19 09:30:48;;;;;;;3.33;2.20;;;;;;;33.57;44.21;101469.16;5069860;28;20476;-69
2023/08/19 09:33:20;;;;;;;3.60;2.17;;;;;;;34.35;43.66;101469.66;5089410;28;20028;-69
2023/08/19 09:35:54;;;;;;;2.83;2.17;;;;;;;34.85;42.76;101470.91;5092413;28;20111;-70
2023/08/19 09:38:21;;;;;;;3.95;2.42;;;;;;;34.63;43.03;101479.38;5090086;28;20476;-69
2023/08/19 09:40:57;;;;;;;2.78;2.08;;;;;;;34.63;42.83;101475.81;5081616;28;20085;-70
2023/08/19 09:43:23;;;;;;;3.33;2.22;;;;;;;34.81;42.51;101492.09;5091556;28;20020;-69
2023/08/19 09:45:48;;;;;;;4.70;2.20;;;;;;;35.05;41.47;101493.25;5086894;28;20024;-69
2023/08/19 09:48:14;;;;;;;6.90;2.67;;;;;;;35.21;41.01;101487.91;5083543;28;20396;-69
2023/08/19 09:50:45;;;;;;;3.10;2.25;;;;;;;34.25;40.34;101476.00;5086102;28;20460;-69
2023/08/19 09:53:15;;;;;;;3.25;1.90;;;;;;;31.94;44.38;101499.75;5070003;28;20502;-68
2023/08/19 09:55:45;;;;;;;3.28;2.28;;;;;;;34.55;40.37;101497.47;5069655;28;20032;-69
2023/08/19 09:58:10;;;;;;;3.97;2.08;;;;;;;34.15;41.05;101488.78;5088418;28;20056;-69
2023/08/19 10:00:36;;;;;;;4.68;2.08;;;;;;;33.70;40.96;101497.75;5084007;28;20384;-69
2023/08/19 10:03:02;;;;;;;5.32;2.40;;;;;;;34.53;40.28;101489.50;5071094;28;20028;-69
2023/08/19 10:05:31;;;;;;;2.60;1.65;;;;;;;33.57;40.79;101496.25;5070426;28;20074;-69
2023/08/19 10:08:03;;;;;;;2.97;1.85;;;;;;;33.95;40.09;101510.63;5086683;28;20012;-69
2023/08/19 10:10:30;;;;;;;3.30;2.38;;;;;;;32.69;42.76;101522.72;5090233;28;20120;-69
2023/08/19 10:12:57;;;;;;;3.67;2.03;;;;;;;33.57;41.44;101531.47;5089475;28;20391;-69
2023/08/19 10:15:26;;;;;;;6.95;2.28;;;;;;;33.20;42.92;101536.88;5070168;28;20028;-69
2023/08/19 10:17:57;;;;;;;4.40;2.42;;;;;;;33.44;43.36;101547.22;5069283;28;20028;-69
2023/08/19 10:20:26;;;;;;;5.78;2.28;;;;;;;32.56;43.95;101548.22;5070021;28;20089;-69
2023/08/19 10:22:56;;;;;;;3.10;2.13;;;;;;;32.98;43.26;101550.59;5076057;28;20028;-70
2023/08/19 10:25:23;;;;;;;3.33;2.50;;;;;;;33.18;42.67;101547.88;5089671;28;20032;-69
2023/08/19 10:27:49;;;;;;;5.43;2.58;;;;;;;32.84;43.31;101548.34;5088323;28;20028;-68
2023/08/19 10:30:24;;;;;;;2.88;2.50;;;;;;;33.02;42.86;101553.88;5087107;28;20407;-69
2023/08/19 10:32:50;;;;;;;3.42;2.33;;;;;;;34.14;41.86;101557.59;5088928;28;20032;-69
2023/08/19 10:35:17;;;;;;;3.70;2.70;;;;;;;33.75;42.36;101549.66;5089136;28;20036;-69
2023/08/19 10:37:45;;;;;;;10.95;3.70;;;;;;;33.05;44.19;101531.91;5089280;28;20089;-69
2023/08/19 10:40:12;;;;;;;4.82;3.22;;;;;;;34.33;43.14;101548.47;5088836;28;20032;-69
2023/08/19 10:42:39;;;;;;;5.47;2.95;;;;;;;34.01;42.85;101554.41;5088942;28;20028;-69
2023/08/19 10:45:17;;;;;;;6.97;2.92;;;;;;;34.24;42.61;101569.22;5087182;28;20152;-69
2023/08/19 10:47:43;;;;;;;6.20;3.10;;;;;;;32.71;45.43;101555.91;5090021;28;20043;-69
2023/08/19 10:50:10;;;;;;;4.53;2.83;;;;;;;33.73;43.78;101540.81;5084359;28;20017;-69
2023/08/19 10:53:03;;;;;;;6.35;3.50;;;;;;;32.79;44.98;101556.03;5069230;28;20028;-68
2023/08/19 10:55:48;;;;;;;;;;;;;;;32.63;45.93;101560.16;5070340;28;20020;-70
2023/08/19 10:58:14;;;;;;;6.05;4.07;;;;;;;32.03;46.53;101567.47;5069049;28;20368;-69
2023/08/19 11:00:40;;;;;;;6.88;3.65;;;;;;;32.48;46.24;101572.41;5081119;28;20054;-69
2023/08/19 11:03:05;;;;;;;4.93;3.20;;;;;;;32.17;46.76;101594.13;5084267;28;20059;-69
2023/08/19 11:05:32;;;;;;;5.68;3.60;;;;;;;32.50;46.14;101597.47;5078817;28;20032;-69
2023/08/19 11:07:58;;;;;;;5.80;3.53;;;;;;;32.01;46.87;101602.72;5071473;28;20020;-70
2023/08/19 11:10:24;;;;;;;5.38;3.30;;;;;;;32.34;46.15;101624.19;5079518;28;20038;-69
2023/08/19 11:12:49;;;;;;;3.63;3.13;;;;;;;32.88;44.61;101628.28;5088889;28;20020;-69